Airfield :
LOGIN :

Register | Disclaimer

   EN    FR    IT 

 










Legend :    VFR   Marginal VFR   IFR   Intensive IFR   Very Intensive IFR
Visi :
Ceiling :
>= 8 km
>= 3000ft
5 to 8 km
1000 to 3000 ft
1500m to 5 km
500 to 1000 ft
800 to 1500m
200 to 500 ft
< 800m
< 200 ft
Symbols :   Thunderstorms  Fog  Heavy snow  Heavy precipitations  Wind > 20 kt
SIGMETs :     Misc.  Thunderstorms  Icing  Turbulence  Mountain Waves  Volcanic Ashes







- Airport Elevation : 142 ft
- IATA code : FLR


LIRQ - Firenze Amerigo Vespucci

CURRENT METAR :
  • 181550Z 24003KT 210V300 CAVOK 14/04 Q1023

EXPIRED METARs :
  • 181520Z VRB02KT CAVOK 15/05 Q1024
  • 181450Z 29003KT 220V010 CAVOK 14/05 Q1024
  • 181420Z VRB02KT CAVOK 14/06 Q1024
  • 181350Z VRB02KT CAVOK 15/05 Q1024
  • 181320Z 02003KT 340V070 CAVOK 13/05 Q1025

TAF TAF LIRQ
Valid from the 18 at 12:00 until the 19 at 12:00 UTC


181100Z 1812/1912 VRB05KT 8000 SCT020
BECMG 1819/1821 4000 BR BKN014
TEMPO 1902/1906 2000
BECMG 1906/1908 7000 SCT020
No reported NOTAMs for that airfield.



MET'MAP, your aeronautical weather chart ! - Copyright ORBIFLY December 2007 - Disclaimer

ORBIFLY MET'MAP TEAM :

Programming & Development : Alexandra Zaïnal
Concept & Development : Baudouin d'Aumeries
Co-Development & Prog : Marc-Olivier Méhu
Technical & hardware support : Manuel Goepfert

Contact : metmap@orbifly.com




SOURCES & CREDITS :

   NOAA